createdAt,value
2016-06-04T00:00:21.589Z,1008.89
2016-06-04T00:01:21.544Z,1008.92
2016-06-04T00:02:24.500Z,1008.88
2016-06-04T00:03:21.455Z,1008.92
2016-06-04T00:04:21.397Z,1008.9
2016-06-04T00:05:21.352Z,1008.9
2016-06-04T00:06:21.308Z,1008.93
2016-06-04T00:07:21.264Z,1008.92
2016-06-04T00:08:21.219Z,1008.9
2016-06-04T00:09:24.175Z,1008.89
2016-06-04T00:10:24.132Z,1008.91
2016-06-04T00:11:21.712Z,1008.9
2016-06-04T00:12:21.026Z,1008.9
2016-06-04T00:13:20.983Z,1008.91
2016-06-04T00:14:20.938Z,1008.92
2016-06-04T00:15:20.879Z,1008.93
2016-06-04T00:16:20.834Z,1008.96
2016-06-04T00:17:21.009Z,1008.93
2016-06-04T00:18:20.762Z,1008.94
2016-06-04T00:19:20.701Z,1008.91
2016-06-04T00:20:23.659Z,1008.9
2016-06-04T00:21:20.614Z,1008.91
2016-06-04T00:22:20.570Z,1008.94
2016-06-04T00:23:20.509Z,1008.94
2016-06-04T00:24:20.481Z,1008.92
2016-06-04T00:25:20.422Z,1008.9
2016-06-04T00:26:20.378Z,1008.89
2016-06-04T00:27:20.333Z,1008.87
2016-06-04T00:28:23.288Z,1008.88
2016-06-04T00:29:20.245Z,1008.83
2016-06-04T00:30:20.200Z,1008.85
2016-06-04T00:31:23.156Z,1008.86
2016-06-04T00:32:23.111Z,1008.88
2016-06-04T00:33:20.255Z,1008.87
2016-06-04T00:34:20.008Z,1008.82
2016-06-04T00:35:19.964Z,1008.84
2016-06-04T00:36:19.919Z,1008.81
2016-06-04T00:37:19.875Z,1008.8
2016-06-04T00:38:19.832Z,1008.75
2016-06-04T00:39:19.788Z,1008.79
2016-06-04T00:40:19.946Z,1008.78
2016-06-04T00:41:19.746Z,1008.79
2016-06-04T00:42:19.843Z,1008.8
2016-06-04T00:43:19.720Z,1008.79
2016-06-04T00:44:19.660Z,1008.82
2016-06-04T00:45:19.506Z,1008.79
2016-06-04T00:46:19.463Z,1008.8
2016-06-04T00:47:19.418Z,1008.81
2016-06-04T00:48:22.374Z,1008.8
2016-06-04T00:49:22.329Z,1008.78
2016-06-04T00:50:19.270Z,1008.79
2016-06-04T00:51:19.226Z,1008.78
2016-06-04T00:52:19.165Z,1008.79
2016-06-04T00:53:19.154Z,1008.79
2016-06-04T00:54:19.078Z,1008.75
2016-06-04T00:55:19.080Z,1008.79
2016-06-04T00:56:22.005Z,1008.74
2016-06-04T00:57:18.945Z,1008.73
2016-06-04T00:58:18.901Z,1008.75
2016-06-04T00:59:18.853Z,1008.77
2016-06-04T01:00:18.843Z,1008.77
2016-06-04T01:01:18.831Z,1008.76
2016-06-04T01:02:18.821Z,1008.77
2016-06-04T01:03:18.810Z,1008.78
2016-06-04T01:04:18.791Z,1008.8
2016-06-04T01:05:18.759Z,1008.81
2016-06-04T01:06:21.728Z,1008.8
2016-06-04T01:07:18.679Z,1008.85
2016-06-04T01:08:18.647Z,1008.83
2016-06-04T01:09:21.627Z,1008.85
2016-06-04T01:10:21.603Z,1008.88
2016-06-04T01:11:18.516Z,1008.87
2016-06-04T01:12:18.679Z,1008.86
2016-06-04T01:13:18.436Z,1008.83
2016-06-04T01:14:18.395Z,1008.86
2016-06-04T01:15:21.556Z,1008.84
2016-06-04T01:16:18.310Z,1008.82
2016-06-04T01:17:18.251Z,1008.83
2016-06-04T01:18:21.225Z,1008.76
2016-06-04T01:19:21.197Z,1008.77
2016-06-04T01:20:18.121Z,1008.73
2016-06-04T01:21:18.094Z,1008.69
2016-06-04T01:22:18.035Z,1008.67
2016-06-04T01:23:17.991Z,1008.66
2016-06-04T01:24:17.947Z,1008.64
2016-06-04T01:25:17.903Z,1008.68
2016-06-04T01:26:18.015Z,1008.67
2016-06-04T01:27:17.800Z,1008.69
2016-06-04T01:28:17.756Z,1008.67
2016-06-04T01:29:17.712Z,1008.69
2016-06-04T01:30:17.668Z,1008.73
2016-06-04T01:31:17.609Z,1008.76
2016-06-04T01:32:17.564Z,1008.75
2016-06-04T01:33:17.520Z,1008.79
2016-06-04T01:34:17.475Z,1008.8
2016-06-04T01:35:20.432Z,1008.82
2016-06-04T01:36:20.387Z,1008.81
2016-06-04T01:37:17.406Z,1008.84
2016-06-04T01:38:17.284Z,1008.76
2016-06-04T01:39:17.239Z,1008.76
2016-06-04T01:40:17.195Z,1008.72
2016-06-04T01:41:17.151Z,1008.73
2016-06-04T01:42:17.106Z,1008.74
2016-06-04T01:43:20.062Z,1008.67
2016-06-04T01:44:20.034Z,1008.69
2016-06-04T01:45:20.005Z,1008.67
2016-06-04T01:46:16.914Z,1008.66
2016-06-04T01:47:19.964Z,1008.69
2016-06-04T01:48:16.826Z,1008.71
2016-06-04T01:49:16.782Z,1008.7
2016-06-04T01:50:16.738Z,1008.71
2016-06-04T01:51:16.677Z,1008.7
2016-06-04T01:52:16.633Z,1008.77
2016-06-04T01:53:16.589Z,1008.75
2016-06-04T01:54:16.545Z,1008.73
2016-06-04T01:55:16.485Z,1008.74
2016-06-04T01:56:16.879Z,1008.75
2016-06-04T01:57:16.616Z,1008.74
2016-06-04T01:58:16.369Z,1008.73
2016-06-04T01:59:16.309Z,1008.74
2016-06-04T02:00:16.264Z,1008.75
2016-06-04T02:01:16.221Z,1008.76
2016-06-04T02:02:19.176Z,1008.73
2016-06-04T02:03:16.115Z,1008.72
2016-06-04T02:04:19.073Z,1008.71
2016-06-04T02:05:16.043Z,1008.68
2016-06-04T02:06:15.983Z,1008.71
2016-06-04T02:07:15.940Z,1008.68
2016-06-04T02:08:15.879Z,1008.7
2016-06-04T02:09:18.866Z,1008.72
2016-06-04T02:10:18.807Z,1008.67
2016-06-04T02:11:15.748Z,1008.7
2016-06-04T02:12:24.718Z,1008.7
2016-06-04T02:13:15.659Z,1008.73
2016-06-04T02:14:15.614Z,1008.78
2016-06-04T02:15:15.555Z,1008.76
2016-06-04T02:16:15.510Z,1008.69
2016-06-04T02:17:15.466Z,1008.72
2016-06-04T02:18:15.422Z,1008.75
2016-06-04T02:19:15.378Z,1008.69
2016-06-04T02:20:15.333Z,1008.67
2016-06-04T02:21:15.289Z,1008.67
2016-06-04T02:22:15.433Z,1008.68
2016-06-04T02:23:15.202Z,1008.66
2016-06-04T02:24:15.142Z,1008.68
2016-06-04T02:25:15.300Z,1008.65
2016-06-04T02:26:15.052Z,1008.64
2016-06-04T02:27:14.993Z,1008.63
2016-06-04T02:28:17.965Z,1008.65
2016-06-04T02:29:14.904Z,1008.63
2016-06-04T02:30:14.860Z,1008.63
2016-06-04T02:31:14.816Z,1008.67
2016-06-04T02:32:14.773Z,1008.61
2016-06-04T02:33:14.728Z,1008.66
2016-06-04T02:34:14.668Z,1008.63
2016-06-04T02:35:14.624Z,1008.65
2016-06-04T02:36:14.580Z,1008.64
2016-06-04T02:37:14.536Z,1008.66
2016-06-04T02:38:17.491Z,1008.68
2016-06-04T02:39:14.448Z,1008.66
2016-06-04T02:40:17.403Z,1008.69
2016-06-04T02:41:14.453Z,1008.71
2016-06-04T02:42:14.315Z,1008.71
2016-06-04T02:43:14.255Z,1008.72
2016-06-04T02:44:14.211Z,1008.73
2016-06-04T02:45:14.151Z,1008.73
2016-06-04T02:46:17.122Z,1008.72
2016-06-04T02:47:17.078Z,1008.7
2016-06-04T02:48:14.033Z,1008.68
2016-06-04T02:49:16.989Z,1008.68
2016-06-04T02:50:13.930Z,1008.71
2016-06-04T02:51:13.902Z,1008.7
2016-06-04T02:52:13.841Z,1008.7
2016-06-04T02:53:13.797Z,1008.68
2016-06-04T02:54:16.753Z,1008.74
2016-06-04T02:55:13.694Z,1008.7
2016-06-04T02:56:16.899Z,1008.71
2016-06-04T02:57:13.605Z,1008.73
2016-06-04T02:58:16.560Z,1008.7
2016-06-04T02:59:13.501Z,1008.7
2016-06-04T03:00:13.473Z,1008.7
2016-06-04T03:01:13.413Z,1008.68
2016-06-04T03:02:13.368Z,1008.71
2016-06-04T03:03:22.340Z,1008.7
2016-06-04T03:04:13.280Z,1008.67
2016-06-04T03:05:13.237Z,1008.72
2016-06-04T03:06:13.207Z,1008.72
2016-06-04T03:07:13.163Z,1008.73
2016-06-04T03:08:13.088Z,1008.74
2016-06-04T03:09:13.043Z,1008.77
2016-06-04T03:10:13.000Z,1008.78
2016-06-04T03:11:12.955Z,1008.77
2016-06-04T03:12:12.895Z,1008.77
2016-06-04T03:13:12.851Z,1008.8
2016-06-04T03:14:12.807Z,1008.78
2016-06-04T03:15:12.763Z,1008.8
2016-06-04T03:16:12.719Z,1008.83
2016-06-04T03:17:12.675Z,1008.77
2016-06-04T03:18:12.630Z,1008.8
2016-06-04T03:19:12.587Z,1008.81
2016-06-04T03:20:12.527Z,1008.82
2016-06-04T03:21:12.497Z,1008.82
2016-06-04T03:22:12.454Z,1008.83
2016-06-04T03:23:15.410Z,1008.83
2016-06-04T03:24:15.334Z,1008.8
2016-06-04T03:25:12.290Z,1008.79
2016-06-04T03:26:12.261Z,1008.77
2016-06-04T03:27:12.202Z,1008.76
2016-06-04T03:28:12.158Z,1008.8
2016-06-04T03:29:12.113Z,1008.77
2016-06-04T03:30:12.069Z,1008.76
2016-06-04T03:31:12.010Z,1008.79
2016-06-04T03:32:12.169Z,1008.77
2016-06-04T03:33:11.920Z,1008.74
2016-06-04T03:34:11.893Z,1008.74
2016-06-04T03:35:11.832Z,1008.74
2016-06-04T03:36:11.788Z,1008.76
2016-06-04T03:37:11.743Z,1008.79
2016-06-04T03:38:11.684Z,1008.8
2016-06-04T03:39:11.640Z,1008.84
2016-06-04T03:40:11.596Z,1008.82
2016-06-04T03:41:12.286Z,1008.8
2016-06-04T03:42:11.507Z,1008.81
2016-06-04T03:43:11.463Z,1008.77
2016-06-04T03:44:11.419Z,1008.77
2016-06-04T03:45:11.375Z,1008.78
2016-06-04T03:46:11.315Z,1008.83
2016-06-04T03:47:11.271Z,1008.86
2016-06-04T03:48:11.227Z,1008.84
2016-06-04T03:49:11.386Z,1008.83
2016-06-04T03:50:11.138Z,1008.81
2016-06-04T03:51:14.094Z,1008.83
2016-06-04T03:52:11.033Z,1008.81
2016-06-04T03:53:10.991Z,1008.87
2016-06-04T03:54:10.946Z,1008.92
2016-06-04T03:55:10.902Z,1008.95
2016-06-04T03:56:10.904Z,1008.94
2016-06-04T03:57:10.813Z,1008.94
2016-06-04T03:58:10.769Z,1008.97
2016-06-04T03:59:10.710Z,1008.98
2016-06-04T04:00:10.665Z,1008.99
2016-06-04T04:01:10.621Z,1008.96
2016-06-04T04:02:10.577Z,1008.98
2016-06-04T04:03:10.518Z,1008.98
2016-06-04T04:04:10.473Z,1009
2016-06-04T04:05:10.429Z,1009
2016-06-04T04:06:10.401Z,1008.99
2016-06-04T04:07:10.340Z,1009
2016-06-04T04:08:13.312Z,1009
2016-06-04T04:09:10.251Z,1009.03
2016-06-04T04:10:10.192Z,1009.03
2016-06-04T04:11:10.164Z,1009.03
2016-06-04T04:12:10.104Z,1009.03
2016-06-04T04:13:10.075Z,1009.01
2016-06-04T04:14:10.015Z,1009
2016-06-04T04:15:12.987Z,1008.96
2016-06-04T04:16:09.927Z,1008.99
2016-06-04T04:17:09.883Z,1008.99
2016-06-04T04:18:09.839Z,1009
2016-06-04T04:19:09.778Z,1009.06
2016-06-04T04:20:18.766Z,1009
2016-06-04T04:21:09.691Z,1009.03
2016-06-04T04:22:09.647Z,1009.04
2016-06-04T04:23:09.602Z,1009.03
2016-06-04T04:24:09.542Z,1009.08
2016-06-04T04:25:09.498Z,1009.08
2016-06-04T04:26:09.455Z,1009.07
2016-06-04T04:27:12.425Z,1009.06
2016-06-04T04:28:09.366Z,1009.06
2016-06-04T04:29:09.322Z,1009.07
2016-06-04T04:30:12.277Z,1009.04
2016-06-04T04:31:09.638Z,1009.01
2016-06-04T04:32:09.173Z,1009.04
2016-06-04T04:33:09.129Z,1009.04
2016-06-04T04:34:09.085Z,1009.07
2016-06-04T04:35:09.040Z,1009.04
2016-06-04T04:36:08.996Z,1009.04
2016-06-04T04:37:08.952Z,1009.05
2016-06-04T04:38:08.892Z,1009.1
2016-06-04T04:39:08.865Z,1009.08
2016-06-04T04:40:08.804Z,1009.06
2016-06-04T04:41:08.760Z,1009.08
2016-06-04T04:42:08.715Z,1009.11
2016-06-04T04:43:08.671Z,1009.09
2016-06-04T04:44:08.612Z,1009.08
2016-06-04T04:45:08.584Z,1009.12
2016-06-04T04:46:08.523Z,1009.05
2016-06-04T04:47:08.495Z,1009.03
2016-06-04T04:48:08.434Z,1009.05
2016-06-04T04:49:08.391Z,1009.05
2016-06-04T04:50:08.347Z,1008.98
2016-06-04T04:51:08.303Z,1009.03
2016-06-04T04:52:08.461Z,1009.06
2016-06-04T04:53:08.198Z,1008.99
2016-06-04T04:54:08.155Z,1009.01
2016-06-04T04:55:11.111Z,1009.02
2016-06-04T04:56:08.081Z,1008.97
2016-06-04T04:57:08.037Z,1008.99
2016-06-04T04:58:07.978Z,1008.98
2016-06-04T04:59:08.121Z,1009.01
2016-06-04T05:00:07.888Z,1009
2016-06-04T05:01:07.844Z,1009.02
2016-06-04T05:02:07.785Z,1009.01
2016-06-04T05:03:07.741Z,1008.99
2016-06-04T05:04:07.682Z,1008.99
2016-06-04T05:05:10.652Z,1009.02
2016-06-04T05:06:07.593Z,1009.01
2016-06-04T05:07:07.549Z,1009
2016-06-04T05:08:07.504Z,1009.01
2016-06-04T05:09:07.460Z,1009.03
2016-06-04T05:10:07.416Z,1009.04
2016-06-04T05:11:07.559Z,1009.05
2016-06-04T05:12:07.312Z,1009.05
2016-06-04T05:13:10.471Z,1009.11
2016-06-04T05:14:07.240Z,1009.09
2016-06-04T05:15:07.211Z,1009.12
2016-06-04T05:16:10.150Z,1009.09
2016-06-04T05:17:10.092Z,1009.12
2016-06-04T05:18:07.047Z,1009.15
2016-06-04T05:19:07.190Z,1009.13
2016-06-04T05:20:06.943Z,1009.15
2016-06-04T05:21:06.899Z,1009.14
2016-06-04T05:22:06.855Z,1009.15
2016-06-04T05:23:06.810Z,1009.12
2016-06-04T05:24:06.767Z,1009.14
2016-06-04T05:25:06.722Z,1009.12
2016-06-04T05:26:06.662Z,1009.13
2016-06-04T05:27:06.618Z,1009.15
2016-06-04T05:28:06.574Z,1009.13
2016-06-04T05:29:06.530Z,1009.17
2016-06-04T05:30:06.485Z,1009.12
2016-06-04T05:31:06.441Z,1009.11
2016-06-04T05:32:06.397Z,1009.16
2016-06-04T05:33:06.338Z,1009.19
2016-06-04T05:34:06.308Z,1009.19
2016-06-04T05:35:06.249Z,1009.24
2016-06-04T05:36:06.204Z,1009.19
2016-06-04T05:37:06.161Z,1009.22
2016-06-04T05:38:06.319Z,1009.19
2016-06-04T05:39:09.072Z,1009.21
2016-06-04T05:40:06.013Z,1009.2
2016-06-04T05:41:06.187Z,1009.25
2016-06-04T05:42:05.924Z,1009.24
2016-06-04T05:43:05.879Z,1009.31
2016-06-04T05:44:05.851Z,1009.26
2016-06-04T05:45:05.792Z,1009.3
2016-06-04T05:46:05.747Z,1009.3
2016-06-04T05:47:05.687Z,1009.34
2016-06-04T05:48:05.643Z,1009.3
2016-06-04T05:49:05.599Z,1009.3
2016-06-04T05:50:05.555Z,1009.34
2016-06-04T05:51:05.511Z,1009.36
2016-06-04T05:52:05.670Z,1009.37
2016-06-04T05:53:08.438Z,1009.36
2016-06-04T05:54:08.378Z,1009.32
2016-06-04T05:55:05.350Z,1009.36
2016-06-04T05:56:08.274Z,1009.36
2016-06-04T05:57:05.230Z,1009.34
2016-06-04T05:58:05.405Z,1009.36
2016-06-04T05:59:05.142Z,1009.33
2016-06-04T06:00:05.097Z,1009.39
2016-06-04T06:01:05.053Z,1009.36
2016-06-04T06:02:05.008Z,1009.39
2016-06-04T06:03:04.966Z,1009.42
2016-06-04T06:04:07.921Z,1009.42
2016-06-04T06:05:04.877Z,1009.4
2016-06-04T06:06:04.816Z,1009.43
2016-06-04T06:07:04.772Z,1009.45
2016-06-04T06:08:04.728Z,1009.42
2016-06-04T06:09:04.684Z,1009.38
2016-06-04T06:10:04.640Z,1009.39
2016-06-04T06:11:04.596Z,1009.4
2016-06-04T06:12:04.535Z,1009.4
2016-06-04T06:13:04.492Z,1009.41
2016-06-04T06:14:04.448Z,1009.39
2016-06-04T06:15:04.404Z,1009.37
2016-06-04T06:16:04.359Z,1009.39
2016-06-04T06:17:04.315Z,1009.37
2016-06-04T06:18:04.271Z,1009.38
2016-06-04T06:19:04.226Z,1009.39
2016-06-04T06:20:04.167Z,1009.35
2016-06-04T06:21:04.123Z,1009.38
2016-06-04T06:22:07.109Z,1009.37
2016-06-04T06:23:07.050Z,1009.39
2016-06-04T06:24:07.192Z,1009.37
2016-06-04T06:25:03.961Z,1009.35
2016-06-04T06:26:03.903Z,1009.34
2016-06-04T06:27:03.873Z,1009.39
2016-06-04T06:28:03.797Z,1009.41
2016-06-04T06:29:03.769Z,1009.41
2016-06-04T06:30:03.709Z,1009.46
2016-06-04T06:31:03.665Z,1009.45
2016-06-04T06:32:06.636Z,1009.45
2016-06-04T06:33:06.592Z,1009.48
2016-06-04T06:34:06.752Z,1009.48
2016-06-04T06:35:03.488Z,1009.48
2016-06-04T06:36:06.444Z,1009.52
2016-06-04T06:37:06.400Z,1009.53
2016-06-04T06:38:03.340Z,1009.55
2016-06-04T06:39:03.312Z,1009.51
2016-06-04T06:40:03.252Z,1009.51
2016-06-04T06:41:03.207Z,1009.51
2016-06-04T06:42:03.163Z,1009.55
2016-06-04T06:43:03.119Z,1009.55
2016-06-04T06:44:03.075Z,1009.56
2016-06-04T06:45:03.031Z,1009.58
2016-06-04T06:46:02.987Z,1009.58
2016-06-04T06:47:02.943Z,1009.61
2016-06-04T06:48:02.882Z,1009.62
2016-06-04T06:49:02.854Z,1009.61
2016-06-04T06:50:02.794Z,1009.59
2016-06-04T06:51:02.751Z,1009.63
2016-06-04T06:52:02.706Z,1009.6
2016-06-04T06:53:02.662Z,1009.61
2016-06-04T06:54:02.820Z,1009.61
2016-06-04T06:55:05.573Z,1009.63
2016-06-04T06:56:02.529Z,1009.58
2016-06-04T06:57:02.485Z,1009.61
2016-06-04T06:58:02.425Z,1009.59
2016-06-04T06:59:02.381Z,1009.62
2016-06-04T07:00:02.337Z,1009.59
2016-06-04T07:01:02.293Z,1009.6
2016-06-04T07:02:02.249Z,1009.64
2016-06-04T07:03:02.205Z,1009.61
2016-06-04T07:04:02.160Z,1009.61
2016-06-04T07:05:02.116Z,1009.58
2016-06-04T07:06:02.072Z,1009.6
2016-06-04T07:07:02.013Z,1009.6
2016-06-04T07:08:04.983Z,1009.62
2016-06-04T07:09:02.126Z,1009.61
2016-06-04T07:10:04.895Z,1009.64
2016-06-04T07:11:04.851Z,1009.67
2016-06-04T07:12:02.446Z,1009.67
2016-06-04T07:13:01.746Z,1009.63
2016-06-04T07:14:01.703Z,1009.66
2016-06-04T07:15:01.674Z,1009.66
2016-06-04T07:16:01.598Z,1009.7
2016-06-04T07:17:04.585Z,1009.68
2016-06-04T07:18:01.510Z,1009.71
2016-06-04T07:19:01.482Z,1009.68
2016-06-04T07:20:04.437Z,1009.69
2016-06-04T07:21:04.393Z,1009.7
2016-06-04T07:22:01.349Z,1009.72
2016-06-04T07:23:04.306Z,1009.71
2016-06-04T07:24:01.261Z,1009.73
2016-06-04T07:25:01.200Z,1009.71
2016-06-04T07:26:01.173Z,1009.71
2016-06-04T07:27:01.112Z,1009.69
2016-06-04T07:28:01.069Z,1009.69
2016-06-04T07:29:01.025Z,1009.72
2016-06-04T07:30:03.980Z,1009.73
2016-06-04T07:31:00.936Z,1009.72
2016-06-04T07:32:00.875Z,1009.76
2016-06-04T07:33:00.832Z,1009.73
2016-06-04T07:34:00.819Z,1009.76
2016-06-04T07:35:00.947Z,1009.74
2016-06-04T07:36:00.699Z,1009.76
2016-06-04T07:37:00.655Z,1009.69
2016-06-04T07:38:00.611Z,1009.77
2016-06-04T07:39:00.567Z,1009.76
2016-06-04T07:40:00.522Z,1009.79
2016-06-04T07:41:00.979Z,1009.76
2016-06-04T07:42:00.419Z,1009.78
2016-06-04T07:43:00.391Z,1009.76
2016-06-04T07:44:00.330Z,1009.75
2016-06-04T07:45:00.285Z,1009.74
2016-06-04T07:46:00.257Z,1009.78
2016-06-04T07:47:00.213Z,1009.75
2016-06-04T07:48:03.154Z,1009.8
2016-06-04T07:49:00.109Z,1009.75
2016-06-04T07:50:00.065Z,1009.77
2016-06-04T07:51:00.021Z,1009.75
2016-06-04T07:51:59.976Z,1009.75
2016-06-04T07:52:59.932Z,1009.75
2016-06-04T07:53:59.888Z,1009.75
2016-06-04T07:54:59.845Z,1009.71
2016-06-04T07:55:59.800Z,1009.75
2016-06-04T07:56:59.818Z,1009.72
2016-06-04T07:57:59.900Z,1009.75
2016-06-04T07:59:02.652Z,1009.75
2016-06-04T08:00:08.623Z,1009.73
2016-06-04T08:00:59.576Z,1009.77
2016-06-04T08:01:59.517Z,1009.72
2016-06-04T08:02:59.472Z,1009.73
2016-06-04T08:03:59.428Z,1009.71
2016-06-04T08:04:59.384Z,1009.7
2016-06-04T08:05:59.339Z,1009.7
2016-06-04T08:06:59.296Z,1009.68
2016-06-04T08:07:59.252Z,1009.71
2016-06-04T08:08:59.208Z,1009.75
2016-06-04T08:10:02.166Z,1009.72
2016-06-04T08:10:59.103Z,1009.75
2016-06-04T08:11:59.059Z,1009.75
2016-06-04T08:12:59.015Z,1009.78
2016-06-04T08:13:58.986Z,1009.73
2016-06-04T08:14:58.926Z,1009.73
2016-06-04T08:15:58.883Z,1009.76
2016-06-04T08:16:58.838Z,1009.76
2016-06-04T08:17:58.810Z,1009.75
2016-06-04T08:18:58.749Z,1009.73
2016-06-04T08:19:58.706Z,1009.81
2016-06-04T08:20:58.662Z,1009.78
2016-06-04T08:21:58.632Z,1009.83
2016-06-04T08:22:58.573Z,1009.78
2016-06-04T08:24:01.548Z,1009.86
2016-06-04T08:24:58.485Z,1009.84
2016-06-04T08:26:01.787Z,1009.86
2016-06-04T08:27:01.431Z,1009.8
2016-06-04T08:28:01.370Z,1009.86
2016-06-04T08:28:58.308Z,1009.81
2016-06-04T08:29:58.264Z,1009.85
2016-06-04T08:30:58.219Z,1009.86
2016-06-04T08:31:58.159Z,1009.86
2016-06-04T08:32:58.131Z,1009.85
2016-06-04T08:33:58.071Z,1009.84
2016-06-04T08:34:58.043Z,1009.85
2016-06-04T08:35:57.999Z,1009.8
2016-06-04T08:36:57.954Z,1009.82
2016-06-04T08:37:57.957Z,1009.86
2016-06-04T08:39:07.899Z,1009.83
2016-06-04T08:39:57.805Z,1009.88
2016-06-04T08:41:00.777Z,1009.84
2016-06-04T08:41:57.718Z,1009.9
2016-06-04T08:42:57.688Z,1009.84
2016-06-04T08:43:57.645Z,1009.86
2016-06-04T08:44:57.586Z,1009.88
2016-06-04T08:45:57.557Z,1009.89
2016-06-04T08:47:00.513Z,1009.92
2016-06-04T08:47:57.468Z,1009.95
2016-06-04T08:48:57.409Z,1009.93
2016-06-04T08:49:57.365Z,1009.9
2016-06-04T08:50:57.335Z,1009.89
2016-06-04T08:51:57.276Z,1009.89
2016-06-04T08:52:57.263Z,1009.9
2016-06-04T08:53:57.187Z,1009.92
2016-06-04T08:55:00.159Z,1009.97
2016-06-04T08:55:57.099Z,1009.96
2016-06-04T08:56:57.101Z,1009.89
2016-06-04T08:57:57.042Z,1009.95
2016-06-04T08:58:57.373Z,1009.89
2016-06-04T08:59:56.922Z,1009.91
2016-06-04T09:00:56.862Z,1009.86
2016-06-04T09:01:56.834Z,1009.88
2016-06-04T09:02:56.790Z,1009.85
2016-06-04T09:03:59.792Z,1009.87
2016-06-04T09:04:56.717Z,1009.84
2016-06-04T09:05:59.720Z,1009.87
2016-06-04T09:06:56.614Z,1009.91
2016-06-04T09:07:56.569Z,1009.9
2016-06-04T09:08:59.556Z,1009.87
2016-06-04T09:09:56.481Z,1009.91
2016-06-04T09:10:56.436Z,1009.87
2016-06-04T09:11:56.408Z,1009.89
2016-06-04T09:12:56.583Z,1009.86
2016-06-04T09:13:56.507Z,1009.84
2016-06-04T09:14:56.275Z,1009.83
2016-06-04T09:15:56.215Z,1009.89
2016-06-04T09:16:56.172Z,1009.9
2016-06-04T09:17:59.143Z,1009.89
2016-06-04T09:18:59.082Z,1009.85
2016-06-04T09:19:59.039Z,1009.85
2016-06-04T09:20:55.995Z,1009.88
2016-06-04T09:21:55.951Z,1009.84
2016-06-04T09:22:55.907Z,1009.88
2016-06-04T09:23:58.878Z,1009.85
2016-06-04T09:24:56.021Z,1009.85
2016-06-04T09:25:55.774Z,1009.85
2016-06-04T09:26:55.932Z,1009.85
2016-06-04T09:27:58.904Z,1009.88
2016-06-04T09:28:55.641Z,1009.81
2016-06-04T09:29:55.598Z,1009.86
2016-06-04T09:30:55.553Z,1009.86
2016-06-04T09:31:55.508Z,1009.82
2016-06-04T09:32:55.667Z,1009.88
2016-06-04T09:33:55.421Z,1009.78
2016-06-04T09:34:55.376Z,1009.8
2016-06-04T09:36:04.334Z,1009.79
2016-06-04T09:36:55.288Z,1009.78
2016-06-04T09:37:58.244Z,1009.77
2016-06-04T09:38:58.200Z,1009.74
2016-06-04T09:39:58.171Z,1009.75
2016-06-04T09:40:58.111Z,1009.77
2016-06-04T09:41:55.067Z,1009.75
2016-06-04T09:42:58.070Z,1009.73
2016-06-04T09:43:54.978Z,1009.72
2016-06-04T09:44:54.935Z,1009.74
2016-06-04T09:45:54.890Z,1009.69
2016-06-04T09:46:57.861Z,1009.66
2016-06-04T09:47:57.802Z,1009.73
2016-06-04T09:48:54.757Z,1009.71
2016-06-04T09:49:54.713Z,1009.74
2016-06-04T09:50:54.685Z,1009.7
2016-06-04T09:51:54.625Z,1009.71
2016-06-04T09:52:54.581Z,1009.74
2016-06-04T09:53:54.536Z,1009.68
2016-06-04T09:54:54.508Z,1009.65
2016-06-04T09:55:54.651Z,1009.68
2016-06-04T09:56:54.404Z,1009.64
2016-06-04T09:57:54.359Z,1009.7
2016-06-04T09:58:54.582Z,1009.68
2016-06-04T09:59:54.271Z,1009.74
2016-06-04T10:00:54.228Z,1009.79
2016-06-04T10:01:54.183Z,1009.76
2016-06-04T10:02:54.170Z,1009.74
2016-06-04T10:03:57.095Z,1009.73
2016-06-04T10:04:57.067Z,1009.7
2016-06-04T10:05:54.023Z,1009.77
2016-06-04T10:06:54.007Z,1009.68
2016-06-04T10:07:54.006Z,1009.77
2016-06-04T10:08:53.975Z,1009.73
2016-06-04T10:09:56.973Z,1009.73
2016-06-04T10:10:56.961Z,1009.78
2016-06-04T10:11:56.927Z,1009.77
2016-06-04T10:12:53.862Z,1009.79
2016-06-04T10:13:53.844Z,1009.77
2016-06-04T10:14:56.809Z,1009.76
2016-06-04T10:15:53.771Z,1009.81
2016-06-04T10:16:53.730Z,1009.74
2016-06-04T10:17:53.688Z,1009.74
2016-06-04T10:18:53.647Z,1009.7
2016-06-04T10:19:53.811Z,1009.68
2016-06-04T10:20:53.566Z,1009.67
2016-06-04T10:21:53.523Z,1009.71
2016-06-04T10:22:53.480Z,1009.68
2016-06-04T10:23:53.437Z,1009.72
2016-06-04T10:24:56.489Z,1009.74
2016-06-04T10:25:53.383Z,1009.75
2016-06-04T10:26:53.307Z,1009.76
2016-06-04T10:27:53.265Z,1009.78
2016-06-04T10:28:56.235Z,1009.78
2016-06-04T10:29:53.177Z,1009.78
2016-06-04T10:30:53.132Z,1009.81
2016-06-04T10:31:56.104Z,1009.78
2016-06-04T10:32:53.044Z,1009.78
2016-06-04T10:33:56.015Z,1009.8
2016-06-04T10:34:55.971Z,1009.76
2016-06-04T10:35:52.927Z,1009.76
2016-06-04T10:36:52.867Z,1009.8
2016-06-04T10:37:52.838Z,1009.77
2016-06-04T10:38:55.888Z,1009.77
2016-06-04T10:39:55.766Z,1009.74
2016-06-04T10:40:52.706Z,1009.76
2016-06-04T10:41:52.662Z,1009.71
2016-06-04T10:42:52.821Z,1009.7
2016-06-04T10:43:52.574Z,1009.75
2016-06-04T10:44:52.529Z,1009.65
2016-06-04T10:45:52.485Z,1009.64
2016-06-04T10:46:52.441Z,1009.66
2016-06-04T10:47:52.413Z,1009.68
2016-06-04T10:48:52.353Z,1009.7
2016-06-04T10:49:52.324Z,1009.77
2016-06-04T10:50:52.264Z,1009.72
2016-06-04T10:51:52.236Z,1009.68
2016-06-04T10:52:52.192Z,1009.7
2016-06-04T10:53:52.147Z,1009.68
2016-06-04T10:54:52.088Z,1009.71
2016-06-04T10:55:52.058Z,1009.71
2016-06-04T10:56:52.218Z,1009.73
2016-06-04T10:57:51.971Z,1009.74
2016-06-04T10:58:51.926Z,1009.64
2016-06-04T10:59:52.086Z,1009.69
2016-06-04T11:00:51.838Z,1009.64
2016-06-04T11:01:51.794Z,1009.56
2016-06-04T11:02:51.750Z,1009.59
2016-06-04T11:03:51.722Z,1009.67
2016-06-04T11:04:51.661Z,1009.65
2016-06-04T11:05:51.633Z,1009.66
2016-06-04T11:06:54.604Z,1009.69
2016-06-04T11:07:51.544Z,1009.63
2016-06-04T11:08:54.516Z,1009.63
2016-06-04T11:09:51.456Z,1009.6
2016-06-04T11:10:54.427Z,1009.62
2016-06-04T11:11:54.398Z,1009.58
2016-06-04T11:12:54.340Z,1009.57
2016-06-04T11:13:54.795Z,1009.62
2016-06-04T11:14:51.235Z,1009.6
2016-06-04T11:15:51.207Z,1009.6
2016-06-04T11:16:51.163Z,1009.63
2016-06-04T11:17:51.118Z,1009.67
2016-06-04T11:18:51.074Z,1009.63
2016-06-04T11:19:51.031Z,1009.57
2016-06-04T11:20:50.986Z,1009.6
2016-06-04T11:21:50.942Z,1009.55
2016-06-04T11:22:50.913Z,1009.59
2016-06-04T11:23:53.869Z,1009.54
2016-06-04T11:24:53.856Z,1009.64
2016-06-04T11:25:53.781Z,1009.6
2016-06-04T11:26:50.736Z,1009.6
2016-06-04T11:27:50.692Z,1009.59
2016-06-04T11:28:50.648Z,1009.6
2016-06-04T11:29:50.604Z,1009.56
2016-06-04T11:30:50.575Z,1009.52
2016-06-04T11:31:53.531Z,1009.51
2016-06-04T11:32:50.486Z,1009.52
2016-06-04T11:33:50.443Z,1009.55
2016-06-04T11:34:50.399Z,1009.55
2016-06-04T11:35:50.480Z,1009.59
2016-06-04T11:36:50.310Z,1009.59
2016-06-04T11:37:50.265Z,1009.53
2016-06-04T11:38:50.222Z,1009.59
2016-06-04T11:39:50.193Z,1009.61
2016-06-04T11:40:50.133Z,1009.6
2016-06-04T11:41:53.104Z,1009.57
2016-06-04T11:42:53.060Z,1009.56
2016-06-04T11:43:53.031Z,1009.59
2016-06-04T11:44:52.973Z,1009.6
2016-06-04T11:45:53.021Z,1009.59
2016-06-04T11:46:49.883Z,1009.6
2016-06-04T11:47:52.856Z,1009.56
2016-06-04T11:48:49.796Z,1009.58
2016-06-04T11:49:49.751Z,1009.6
2016-06-04T11:50:49.707Z,1009.66
2016-06-04T11:51:52.835Z,1009.59
2016-06-04T11:52:52.650Z,1009.61
2016-06-04T11:53:49.590Z,1009.56
2016-06-04T11:54:49.546Z,1009.55
2016-06-04T11:55:49.502Z,1009.52
2016-06-04T11:56:50.019Z,1009.57
2016-06-04T11:57:49.414Z,1009.54
2016-06-04T11:58:52.400Z,1009.57
2016-06-04T11:59:52.341Z,1009.59
2016-06-04T12:00:49.297Z,1009.58
2016-06-04T12:01:49.268Z,1009.6
2016-06-04T12:02:49.208Z,1009.59
2016-06-04T12:03:49.179Z,1009.58
2016-06-04T12:04:49.136Z,1009.59
2016-06-04T12:05:49.091Z,1009.54
2016-06-04T12:06:52.047Z,1009.52
2016-06-04T12:07:49.002Z,1009.48
2016-06-04T12:08:48.959Z,1009.53